createdAt,value
2022-11-24T00:04:25.369Z,1009.96
2022-11-24T00:14:25.689Z,1009.69
2022-11-24T00:24:28.666Z,1009.84
2022-11-24T00:34:25.935Z,1009.82
2022-11-24T00:44:26.193Z,1010.15
2022-11-24T00:54:26.461Z,1009.98
2022-11-24T01:04:26.820Z,1010.00
2022-11-24T01:14:26.908Z,1010.15
2022-11-24T01:24:26.962Z,1010.33
2022-11-24T01:34:27.281Z,1010.42
2022-11-24T01:44:27.386Z,1010.68
2022-11-24T01:54:28.672Z,1010.99
2022-11-24T02:04:27.738Z,1010.77
2022-11-24T02:14:28.029Z,1010.58
2022-11-24T02:24:28.080Z,1010.95
2022-11-24T02:34:28.389Z,1011.59
2022-11-24T02:44:28.451Z,1011.34
2022-11-24T02:54:28.755Z,1011.64
2022-11-24T03:04:28.819Z,1011.45
2022-11-24T03:14:29.151Z,1011.67
2022-11-24T03:24:29.211Z,1011.68
2022-11-24T03:34:29.520Z,1011.71
2022-11-24T03:44:29.592Z,1011.71
2022-11-24T03:54:29.665Z,1011.72
2022-11-24T04:04:29.923Z,1011.68
2022-11-24T04:14:30.239Z,1011.75
2022-11-24T04:24:30.292Z,1011.78
2022-11-24T04:34:30.650Z,1011.91
2022-11-24T04:44:30.703Z,1011.91
2022-11-24T04:54:31.418Z,1011.95
2022-11-24T05:04:31.151Z,1012.14
2022-11-24T05:14:31.458Z,1012.21
2022-11-24T05:24:32.074Z,1012.39
2022-11-24T05:34:32.158Z,1012.61
2022-11-24T05:44:32.184Z,1012.64
2022-11-24T05:54:32.288Z,1012.71
2022-11-24T06:04:32.439Z,1012.69
2022-11-24T06:14:32.560Z,1012.71
2022-11-24T06:24:32.810Z,1012.79
2022-11-24T06:34:33.041Z,1012.72
2022-11-24T06:44:33.165Z,1012.75
2022-11-24T06:54:33.427Z,1012.87
2022-11-24T07:04:33.618Z,1012.86
2022-11-24T07:14:34.105Z,1012.88
2022-11-24T07:24:34.143Z,1012.77
2022-11-24T07:34:34.473Z,1012.74
2022-11-24T07:44:34.599Z,1012.91
2022-11-24T07:54:34.753Z,1012.87
2022-11-24T08:04:34.761Z,1013.09
2022-11-24T08:14:35.086Z,1013.11
2022-11-24T08:24:35.171Z,1013.02
2022-11-24T08:34:35.250Z,1013.00
2022-11-24T08:44:35.424Z,1013.03
2022-11-24T08:54:38.473Z,1013.06
2022-11-24T09:04:35.751Z,1013.00
2022-11-24T09:14:35.968Z,1012.99
2022-11-24T09:24:35.781Z,1013.46
2022-11-24T09:34:36.055Z,1013.81
2022-11-24T09:44:36.084Z,1014.10
2022-11-24T09:54:36.409Z,1014.39
2022-11-24T10:04:36.489Z,1014.14
2022-11-24T10:14:36.583Z,1014.21
2022-11-24T10:24:36.605Z,1014.36
2022-11-24T10:34:36.853Z,1014.61
2022-11-24T10:44:37.074Z,1014.58
2022-11-24T10:54:37.318Z,1014.58
2022-11-24T11:04:37.558Z,1014.55
2022-11-24T11:14:38.825Z,1014.40
2022-11-24T11:24:38.067Z,1014.47
2022-11-24T11:34:38.601Z,1014.49
2022-11-24T11:44:38.546Z,1014.47
2022-11-24T11:54:38.741Z,1014.46
2022-11-24T12:04:38.758Z,1014.46
2022-11-24T12:14:39.571Z,1014.65
2022-11-24T12:24:39.321Z,1014.66
2022-11-24T12:34:40.402Z,1014.75
2022-11-24T12:44:39.630Z,1014.66
2022-11-24T12:54:39.958Z,1014.73
2022-11-24T13:04:40.221Z,1014.73
2022-11-24T13:14:40.126Z,1014.86
2022-11-24T13:24:40.256Z,1014.78
2022-11-24T13:34:41.306Z,1015.05
2022-11-24T13:44:40.536Z,1015.01
2022-11-24T13:54:43.228Z,1014.83
2022-11-24T14:04:40.878Z,1014.90
2022-11-24T14:14:41.070Z,1014.97
2022-11-24T14:24:41.872Z,1014.93
2022-11-24T14:34:41.556Z,1014.93
2022-11-24T14:44:41.454Z,1014.96
2022-11-24T14:54:43.509Z,1015.00
2022-11-24T15:05:08.048Z,1015.08
2022-11-24T15:14:42.944Z,1015.05
2022-11-24T15:24:42.223Z,1015.01
2022-11-24T15:34:42.267Z,1014.96
2022-11-24T15:44:42.611Z,1014.85
2022-11-24T15:54:42.633Z,1014.75
2022-11-24T16:04:43.926Z,1014.64
2022-11-24T16:14:43.035Z,1014.64
2022-11-24T16:24:43.142Z,1014.83
2022-11-24T16:34:43.183Z,1014.81
2022-11-24T16:44:43.507Z,1014.84
2022-11-24T16:54:43.917Z,1014.93
2022-11-24T17:04:43.695Z,1014.86
2022-11-24T17:14:52.703Z,1014.92
2022-11-24T17:24:49.559Z,1015.00
2022-11-24T17:34:44.320Z,1015.06
2022-11-24T17:44:44.563Z,1014.95
2022-11-24T17:54:57.330Z,1014.84
2022-11-24T18:04:45.736Z,1014.89
2022-11-24T18:14:45.727Z,1014.78
2022-11-24T18:24:45.263Z,1014.73
2022-11-24T18:34:46.067Z,1014.64
2022-11-24T18:44:49.731Z,1014.55
2022-11-24T18:54:46.767Z,1014.48
2022-11-24T19:04:46.952Z,1014.50
2022-11-24T19:14:46.078Z,1014.42
2022-11-24T19:24:47.096Z,1014.29
2022-11-24T19:34:46.724Z,1014.23
2022-11-24T19:44:50.239Z,1014.19
2022-11-24T19:54:47.720Z,1014.05
2022-11-24T20:04:47.270Z,1014.09
2022-11-24T20:14:47.466Z,1014.06
2022-11-24T20:24:47.754Z,1014.06
2022-11-24T20:34:47.961Z,1013.99
2022-11-24T20:44:47.948Z,1014.02
2022-11-24T20:54:48.222Z,1013.96
2022-11-24T21:04:49.357Z,1013.96
2022-11-24T21:14:48.244Z,1014.03
2022-11-24T21:24:48.582Z,1014.02
2022-11-24T21:34:48.697Z,1013.85
2022-11-24T21:44:48.845Z,1013.82
2022-11-24T21:54:48.925Z,1013.83
2022-11-24T22:04:49.223Z,1013.72
2022-11-24T22:14:49.260Z,1013.54
2022-11-24T22:24:49.589Z,1013.47
2022-11-24T22:34:49.627Z,1013.55
2022-11-24T22:44:49.968Z,1013.58
2022-11-24T22:54:49.991Z,1013.61
2022-11-24T23:04:50.331Z,1013.46
2022-11-24T23:14:50.367Z,1013.42
2022-11-24T23:24:51.634Z,1013.53
2022-11-24T23:34:50.885Z,1013.59
2022-11-24T23:44:51.172Z,1013.39
2022-11-24T23:55:26.988Z,1013.47
